»·PEaware :: WWW97 KLAS-KTNX

WWW97 :: KLAS-KTNX

FLIGHT INFORMATION

Flight Status: Arrived
Operator: Unknown
More flights by this operator :: More flights under this callsign
Pilot: Skye D. (10623)
Aircraft: BOEING 737-600
(B736)
More flights by this aircraft type
Origin: KLAS Harry Reid Intl
United States
Destination: KTNX Tonopah Test Range
United States
More flights between these airports :: More routes between these airports
Route: LOHLA3 JAYSN EXITT
File this flight plan on PilotEdge
Remarks: RMK / SIMBRIEF
Altitude:
(Current/Filed)
24,000ft
Speed:
(Current/Filed)
385kts
Departed: 13-Oct-23 02:27 PM
Arrived: 13-Oct-23 03:01 PM
Distance/Time
Traveled:
130nm/0:34
Distance/Time
To Go:
Arrived

Flight Plot

Page will automatically refresh every two minutes.

Flight plan parsing failed; only flown route is shown


Map Options




Map Legend


Flown Route
Filed Route
Departure Airport
Arrival Airport
Navaid (VOR, NDB)
Fix

Horizontal Profiles

Position Reports

Time Latitude Longitude Heading Altitude Ground
Speed
13-Oct-23 14:03 36.091955 -115.164642 237 2186ft 0kts
13-Oct-23 14:04 36.091955 -115.164642 237 2186ft 0kts
13-Oct-23 14:05 36.091955 -115.164642 237 2186ft 0kts
13-Oct-23 14:06 36.091955 -115.164642 237 2186ft 0kts
13-Oct-23 14:07 36.091955 -115.164642 237 2186ft 0kts
13-Oct-23 14:08 36.091955 -115.164642 237 2186ft 0kts
13-Oct-23 14:09 36.091955 -115.164642 237 2186ft 0kts
13-Oct-23 14:10 36.091955 -115.164642 237 2186ft 0kts
13-Oct-23 14:11 36.091955 -115.164642 237 2186ft 0kts
13-Oct-23 14:12 36.091955 -115.164642 237 2186ft 0kts
13-Oct-23 14:13 36.091955 -115.164642 237 2186ft 0kts
13-Oct-23 14:14 36.091955 -115.164642 237 2186ft 0kts
13-Oct-23 14:15 36.091955 -115.164642 237 2186ft 0kts
13-Oct-23 14:16 36.091955 -115.164642 237 2186ft 0kts
13-Oct-23 14:17 36.091955 -115.164642 237 2186ft 0kts
13-Oct-23 14:18 36.091955 -115.164642 237 2186ft 0kts
13-Oct-23 14:19 36.091892 -115.164764 237 2186ft 4kts
13-Oct-23 14:20 36.091322 -115.164484 103 2186ft 0kts
13-Oct-23 14:21 36.091990 -115.163269 24 2186ft 9kts
13-Oct-23 14:22 36.095024 -115.161515 24 2188ft 19kts
13-Oct-23 14:23 36.099453 -115.158807 54 2188ft 10kts
13-Oct-23 14:24 36.099751 -115.157877 69 2188ft 0kts
13-Oct-23 14:25 36.099104 -115.156748 207 2186ft 10kts
13-Oct-23 14:26 36.076045 -115.169830 203 2961ft 170kts
13-Oct-23 14:27 36.060512 -115.222883 296 4922ft 246kts
13-Oct-23 14:28 36.102823 -115.289873 344 8057ft 269kts
13-Oct-23 14:29 36.178000 -115.318009 314 10801ft 317kts
13-Oct-23 14:30 36.215537 -115.418711 292 13839ft 327kts
13-Oct-23 14:31 36.250398 -115.523348 292 13954ft 329kts
13-Oct-23 14:32 36.300469 -115.617040 307 13958ft 328kts
13-Oct-23 14:33 36.357709 -115.708595 307 17042ft 338kts
13-Oct-23 14:34 36.413935 -115.799884 306 20889ft 326kts
13-Oct-23 14:35 36.468141 -115.888216 305 23924ft 318kts
13-Oct-23 14:36 36.526330 -115.983409 305 24022ft 378kts
13-Oct-23 14:37 36.609781 -116.060042 342 24002ft 392kts
13-Oct-23 14:38 36.716814 -116.087740 343 23975ft 394kts
13-Oct-23 14:39 36.821327 -116.115779 343 23977ft 385kts
13-Oct-23 14:40 36.924424 -116.148444 332 23986ft 377kts
13-Oct-23 14:41 37.011979 -116.216942 323 23871ft 372kts
13-Oct-23 14:42 37.097854 -116.287328 324 21936ft 362kts
13-Oct-23 14:43 37.179817 -116.354391 324 20088ft 342kts
13-Oct-23 14:44 37.258554 -116.419006 325 18105ft 337kts
13-Oct-23 14:45 37.336186 -116.482852 325 16080ft 330kts
13-Oct-23 14:46 37.406760 -116.540994 324 15872ft 276kts
13-Oct-23 14:47 37.471291 -116.594360 325 15893ft 279kts
13-Oct-23 14:48 37.537819 -116.643926 333 15841ft 276kts
13-Oct-23 14:49 37.608303 -116.636434 47 14346ft 304kts
13-Oct-23 14:50 37.602924 -116.533953 112 12459ft 307kts
13-Oct-23 14:51 37.540968 -116.481805 196 10396ft 284kts
13-Oct-23 14:52 37.516257 -116.556617 294 8713ft 235kts
13-Oct-23 14:53 37.549784 -116.612798 322 8235ft 190kts
13-Oct-23 14:54 37.589347 -116.652691 324 7479ft 169kts
13-Oct-23 14:55 37.628414 -116.689981 335 7496ft 180kts
13-Oct-23 14:56 37.673793 -116.714543 338 7445ft 163kts
13-Oct-23 14:57 37.710737 -116.734084 339 6991ft 137kts
13-Oct-23 14:58 37.747489 -116.753509 336 6234ft 149kts
13-Oct-23 14:59 37.787452 -116.774669 336 5558ft 152kts
13-Oct-23 15:00 37.805117 -116.783713 69 5553ft 6kts
13-Oct-23 15:01 37.806317 -116.779895 67 5554ft 11kts
13-Oct-23 15:02 37.807279 -116.778755 23 5555ft 5kts
13-Oct-23 15:03 37.806886 -116.778158 245 5555ft 0kts
13-Oct-23 15:04 37.806886 -116.778158 245 5555ft 0kts
13-Oct-23 15:05 37.806886 -116.778158 245 5555ft 0kts
13-Oct-23 15:06 37.806886 -116.778158 245 5555ft 0kts

Navigation Log

Ident Type
Flight plan parsing failed, navigation log unavailable